<?xml version="1.0" encoding="utf-8"?>
<gpx xmlns:xsi="http://www.w3.org/2001/XMLSchema-instance" xmlns:xsd="http://www.w3.org/2001/XMLSchema" version="1.1" creator="Shapelink.com" xmlns="http://www.topografix.com/GPX/1/1" xmlns:gpxtpx="http://www.garmin.com/xmlschemas/TrackPointExtension/v1">
  <metadata>
    <name>Kører 10.27 km, 2020-01-21</name>
    <desc></desc>
    <author><name>Per Rooth</name></author> 
    <time>2020-01-21T19:23:03Z</time>
  </metadata>
  <trk>
    <name>Kører 10.27 km, 2020-01-21</name>
    <trkseg>
      <trkpt lat="56.873357215322" lon="14.792906604623">
        <ele>175.6</ele>
        <time>2020-01-21T19:23:03Z</time>
      </trkpt>
      <trkpt lat="56.873319915867" lon="14.79291523798">
        <ele>176.4</ele>
        <time>2020-01-21T19:23:05Z</time>
      </trkpt>
      <trkpt lat="56.873126796891" lon="14.792895205239">
        <ele>175.2</ele>
        <time>2020-01-21T19:23:14Z</time>
      </trkpt>
      <trkpt lat="56.872928481137" lon="14.792930660676">
        <ele>175</ele>
        <time>2020-01-21T19:23:23Z</time>
      </trkpt>
      <trkpt lat="56.872737792912" lon="14.792980365343">
        <ele>175.8</ele>
        <time>2020-01-21T19:23:30Z</time>
      </trkpt>
      <trkpt lat="56.872545847402" lon="14.792930995952">
        <ele>175.8</ele>
        <time>2020-01-21T19:23:39Z</time>
      </trkpt>
      <trkpt lat="56.872361529421" lon="14.792895540515">
        <ele>175.4</ele>
        <time>2020-01-21T19:23:46Z</time>
      </trkpt>
      <trkpt lat="56.872281649914" lon="14.79289595961">
        <ele>175.2</ele>
        <time>2020-01-21T19:23:49Z</time>
      </trkpt>
      <trkpt lat="56.872105043281" lon="14.792958320946">
        <ele>175.2</ele>
        <time>2020-01-21T19:23:55Z</time>
      </trkpt>
      <trkpt lat="56.871923910422" lon="14.793076589555">
        <ele>175.2</ele>
        <time>2020-01-21T19:24:02Z</time>
      </trkpt>
      <trkpt lat="56.871732467826" lon="14.793195863992">
        <ele>175.8</ele>
        <time>2020-01-21T19:24:09Z</time>
      </trkpt>
      <trkpt lat="56.871557118478" lon="14.793212627792">
        <ele>175.8</ele>
        <time>2020-01-21T19:24:16Z</time>
      </trkpt>
      <trkpt lat="56.871370202108" lon="14.793146159325">
        <ele>176</ele>
        <time>2020-01-21T19:24:23Z</time>
      </trkpt>
      <trkpt lat="56.87118982362" lon="14.793062172687">
        <ele>175</ele>
        <time>2020-01-21T19:24:30Z</time>
      </trkpt>
      <trkpt lat="56.871139280763" lon="14.793040212109">
        <ele>174.4</ele>
        <time>2020-01-21T19:24:32Z</time>
      </trkpt>
      <trkpt lat="56.870936354964" lon="14.792939294033">
        <ele>174.4</ele>
        <time>2020-01-21T19:24:39Z</time>
      </trkpt>
      <trkpt lat="56.87090735359" lon="14.792927140278">
        <ele>174.2</ele>
        <time>2020-01-21T19:24:40Z</time>
      </trkpt>
      <trkpt lat="56.870723622342" lon="14.792849356246">
        <ele>174</ele>
        <time>2020-01-21T19:24:47Z</time>
      </trkpt>
      <trkpt lat="56.870615244375" lon="14.792803842529">
        <ele>173.4</ele>
        <time>2020-01-21T19:24:51Z</time>
      </trkpt>
      <trkpt lat="56.870432686593" lon="14.792704265557">
        <ele>172.8</ele>
        <time>2020-01-21T19:24:58Z</time>
      </trkpt>
      <trkpt lat="56.87031056231" lon="14.792610053001">
        <ele>173.2</ele>
        <time>2020-01-21T19:25:03Z</time>
      </trkpt>
      <trkpt lat="56.87023009607" lon="14.79259924035">
        <ele>172.4</ele>
        <time>2020-01-21T19:25:07Z</time>
      </trkpt>
      <trkpt lat="56.870097326774" lon="14.792840555251">
        <ele>172</ele>
        <time>2020-01-21T19:25:13Z</time>
      </trkpt>
      <trkpt lat="56.869981656554" lon="14.793099053047">
        <ele>172.2</ele>
        <time>2020-01-21T19:25:19Z</time>
      </trkpt>
      <trkpt lat="56.869831033811" lon="14.793364759277">
        <ele>171.8</ele>
        <time>2020-01-21T19:25:26Z</time>
      </trkpt>
      <trkpt lat="56.869725086595" lon="14.79358830455">
        <ele>171.8</ele>
        <time>2020-01-21T19:25:31Z</time>
      </trkpt>
      <trkpt lat="56.869611428031" lon="14.793772622531">
        <ele>171.6</ele>
        <time>2020-01-21T19:25:36Z</time>
      </trkpt>
      <trkpt lat="56.869434150846" lon="14.793665166573">
        <ele>171.2</ele>
        <time>2020-01-21T19:25:42Z</time>
      </trkpt>
      <trkpt lat="56.869311523649" lon="14.793563410307">
        <ele>170</ele>
        <time>2020-01-21T19:25:46Z</time>
      </trkpt>
      <trkpt lat="56.869149836798" lon="14.793389485882">
        <ele>169</ele>
        <time>2020-01-21T19:25:52Z</time>
      </trkpt>
      <trkpt lat="56.869125864564" lon="14.793383870009">
        <ele>169.2</ele>
        <time>2020-01-21T19:25:53Z</time>
      </trkpt>
      <trkpt lat="56.869045146867" lon="14.793706405521">
        <ele>169.2</ele>
        <time>2020-01-21T19:26:00Z</time>
      </trkpt>
      <trkpt lat="56.868985467739" lon="14.794060876072">
        <ele>168.8</ele>
        <time>2020-01-21T19:26:07Z</time>
      </trkpt>
      <trkpt lat="56.86897113469" lon="14.794172774437">
        <ele>168.8</ele>
        <time>2020-01-21T19:26:09Z</time>
      </trkpt>
      <trkpt lat="56.868905169137" lon="14.794528250816">
        <ele>168.8</ele>
        <time>2020-01-21T19:26:16Z</time>
      </trkpt>
      <trkpt lat="56.868828390933" lon="14.794869645603">
        <ele>169</ele>
        <time>2020-01-21T19:26:23Z</time>
      </trkpt>
      <trkpt lat="56.868737195861" lon="14.795171226365">
        <ele>168.4</ele>
        <time>2020-01-21T19:26:29Z</time>
      </trkpt>
      <trkpt lat="56.86864843154" lon="14.795503317243">
        <ele>168.4</ele>
        <time>2020-01-21T19:26:36Z</time>
      </trkpt>
      <trkpt lat="56.868567797662" lon="14.795828954058">
        <ele>168.6</ele>
        <time>2020-01-21T19:26:43Z</time>
      </trkpt>
      <trkpt lat="56.868495964779" lon="14.796144448774">
        <ele>168.4</ele>
        <time>2020-01-21T19:26:50Z</time>
      </trkpt>
      <trkpt lat="56.868432765253" lon="14.796442509138">
        <ele>168.4</ele>
        <time>2020-01-21T19:26:56Z</time>
      </trkpt>
      <trkpt lat="56.868359004533" lon="14.79679941044">
        <ele>168.4</ele>
        <time>2020-01-21T19:27:03Z</time>
      </trkpt>
      <trkpt lat="56.868288345116" lon="14.797108534912">
        <ele>168.4</ele>
        <time>2020-01-21T19:27:09Z</time>
      </trkpt>
      <trkpt lat="56.868204609935" lon="14.797448588595">
        <ele>168.2</ele>
        <time>2020-01-21T19:27:16Z</time>
      </trkpt>
      <trkpt lat="56.868134872527" lon="14.797796353626">
        <ele>168.4</ele>
        <time>2020-01-21T19:27:23Z</time>
      </trkpt>
      <trkpt lat="56.868125233342" lon="14.797847231759">
        <ele>168</ele>
        <time>2020-01-21T19:27:24Z</time>
      </trkpt>
      <trkpt lat="56.868073768476" lon="14.798182340121">
        <ele>167.6</ele>
        <time>2020-01-21T19:27:31Z</time>
      </trkpt>
      <trkpt lat="56.868034122089" lon="14.798508060755">
        <ele>167.6</ele>
        <time>2020-01-21T19:27:38Z</time>
      </trkpt>
      <trkpt lat="56.868007467647" lon="14.798840654547">
        <ele>167.6</ele>
        <time>2020-01-21T19:27:44Z</time>
      </trkpt>
      <trkpt lat="56.867978969187" lon="14.799179534764">
        <ele>167</ele>
        <time>2020-01-21T19:27:50Z</time>
      </trkpt>
      <trkpt lat="56.867976789893" lon="14.799235525856">
        <ele>166.8</ele>
        <time>2020-01-21T19:27:51Z</time>
      </trkpt>
      <trkpt lat="56.86799715791" lon="14.799573232607">
        <ele>166.4</ele>
        <time>2020-01-21T19:27:57Z</time>
      </trkpt>
      <trkpt lat="56.868084832584" lon="14.799871544428">
        <ele>166.6</ele>
        <time>2020-01-21T19:28:03Z</time>
      </trkpt>
      <trkpt lat="56.868117438175" lon="14.799963158595">
        <ele>166.6</ele>
        <time>2020-01-21T19:28:05Z</time>
      </trkpt>
      <trkpt lat="56.86822933654" lon="14.800238923105">
        <ele>167</ele>
        <time>2020-01-21T19:28:11Z</time>
      </trkpt>
      <trkpt lat="56.868319358146" lon="14.800538743668">
        <ele>166.8</ele>
        <time>2020-01-21T19:28:17Z</time>
      </trkpt>
      <trkpt lat="56.868396723083" lon="14.800842336086">
        <ele>166.2</ele>
        <time>2020-01-21T19:28:23Z</time>
      </trkpt>
      <trkpt lat="56.868491354734" lon="14.801126566315">
        <ele>167</ele>
        <time>2020-01-21T19:28:29Z</time>
      </trkpt>
      <trkpt lat="56.868610796809" lon="14.80140023535">
        <ele>166.8</ele>
        <time>2020-01-21T19:28:35Z</time>
      </trkpt>
      <trkpt lat="56.868717917491" lon="14.801670383987">
        <ele>166.2</ele>
        <time>2020-01-21T19:28:41Z</time>
      </trkpt>
      <trkpt lat="56.868821182499" lon="14.801942376642">
        <ele>166.4</ele>
        <time>2020-01-21T19:28:47Z</time>
      </trkpt>
      <trkpt lat="56.868929644285" lon="14.802253680408">
        <ele>166.6</ele>
        <time>2020-01-21T19:28:54Z</time>
      </trkpt>
      <trkpt lat="56.869050846559" lon="14.802564648898">
        <ele>167.2</ele>
        <time>2020-01-21T19:29:01Z</time>
      </trkpt>
      <trkpt lat="56.869071382214" lon="14.802611671357">
        <ele>167</ele>
        <time>2020-01-21T19:29:02Z</time>
      </trkpt>
      <trkpt lat="56.869195853429" lon="14.802857512484">
        <ele>167.8</ele>
        <time>2020-01-21T19:29:08Z</time>
      </trkpt>
      <trkpt lat="56.869349661294" lon="14.80299614911">
        <ele>166.8</ele>
        <time>2020-01-21T19:29:14Z</time>
      </trkpt>
      <trkpt lat="56.869430378991" lon="14.803148280595">
        <ele>165.8</ele>
        <time>2020-01-21T19:29:18Z</time>
      </trkpt>
      <trkpt lat="56.869545713935" lon="14.803463942949">
        <ele>166</ele>
        <time>2020-01-21T19:29:25Z</time>
      </trkpt>
      <trkpt lat="56.86959390986" lon="14.803774911439">
        <ele>166</ele>
        <time>2020-01-21T19:29:31Z</time>
      </trkpt>
      <trkpt lat="56.869531799981" lon="14.80413105837">
        <ele>166.2</ele>
        <time>2020-01-21T19:29:37Z</time>
      </trkpt>
      <trkpt lat="56.869476730898" lon="14.804469938587">
        <ele>166.4</ele>
        <time>2020-01-21T19:29:43Z</time>
      </trkpt>
      <trkpt lat="56.869400204151" lon="14.80482591788">
        <ele>166.6</ele>
        <time>2020-01-21T19:29:50Z</time>
      </trkpt>
      <trkpt lat="56.869380758143" lon="14.804875287271">
        <ele>166.8</ele>
        <time>2020-01-21T19:29:51Z</time>
      </trkpt>
      <trkpt lat="56.869224854803" lon="14.805045188384">
        <ele>166.8</ele>
        <time>2020-01-21T19:29:56Z</time>
      </trkpt>
      <trkpt lat="56.869050846559" lon="14.805248784735">
        <ele>166.6</ele>
        <time>2020-01-21T19:30:02Z</time>
      </trkpt>
      <trkpt lat="56.868879436704" lon="14.805368142991">
        <ele>166.6</ele>
        <time>2020-01-21T19:30:09Z</time>
      </trkpt>
      <trkpt lat="56.868821433956" lon="14.805375183787">
        <ele>166.6</ele>
        <time>2020-01-21T19:30:11Z</time>
      </trkpt>
      <trkpt lat="56.868623956392" lon="14.805391277035">
        <ele>166.6</ele>
        <time>2020-01-21T19:30:18Z</time>
      </trkpt>
      <trkpt lat="56.868425389181" lon="14.805405610084">
        <ele>167</ele>
        <time>2020-01-21T19:30:24Z</time>
      </trkpt>
      <trkpt lat="56.868219781174" lon="14.805362946213">
        <ele>166.6</ele>
        <time>2020-01-21T19:30:31Z</time>
      </trkpt>
      <trkpt lat="56.86803487646" lon="14.805230428374">
        <ele>167.2</ele>
        <time>2020-01-21T19:30:38Z</time>
      </trkpt>
      <trkpt lat="56.867862125501" lon="14.805064885849">
        <ele>166.6</ele>
        <time>2020-01-21T19:30:44Z</time>
      </trkpt>
      <trkpt lat="56.867675879683" lon="14.804965644153">
        <ele>166.2</ele>
        <time>2020-01-21T19:30:50Z</time>
      </trkpt>
      <trkpt lat="56.867507152036" lon="14.804834886513">
        <ele>165.8</ele>
        <time>2020-01-21T19:30:57Z</time>
      </trkpt>
      <trkpt lat="56.867432050212" lon="14.804791300633">
        <ele>165.6</ele>
        <time>2020-01-21T19:30:59Z</time>
      </trkpt>
      <trkpt lat="56.867362899537" lon="14.804759281775">
        <ele>165.6</ele>
        <time>2020-01-21T19:31:01Z</time>
      </trkpt>
      <trkpt lat="56.867193501338" lon="14.804664482486">
        <ele>166.2</ele>
        <time>2020-01-21T19:31:08Z</time>
      </trkpt>
      <trkpt lat="56.867012536117" lon="14.804596002363">
        <ele>166.4</ele>
        <time>2020-01-21T19:31:14Z</time>
      </trkpt>
      <trkpt lat="56.866824781557" lon="14.804532299923">
        <ele>166.6</ele>
        <time>2020-01-21T19:31:19Z</time>
      </trkpt>
      <trkpt lat="56.866616239885" lon="14.804419898644">
        <ele>166.4</ele>
        <time>2020-01-21T19:31:26Z</time>
      </trkpt>
      <trkpt lat="56.866420606339" lon="14.804309173745">
        <ele>166.4</ele>
        <time>2020-01-21T19:31:32Z</time>
      </trkpt>
      <trkpt lat="56.866240646946" lon="14.804208758583">
        <ele>166.2</ele>
        <time>2020-01-21T19:31:40Z</time>
      </trkpt>
      <trkpt lat="56.866226481535" lon="14.804200209045">
        <ele>166.4</ele>
        <time>2020-01-21T19:31:41Z</time>
      </trkpt>
      <trkpt lat="56.866022717546" lon="14.80406484136">
        <ele>166.2</ele>
        <time>2020-01-21T19:31:49Z</time>
      </trkpt>
      <trkpt lat="56.865842841972" lon="14.803920169766">
        <ele>166.6</ele>
        <time>2020-01-21T19:31:56Z</time>
      </trkpt>
      <trkpt lat="56.865814008236" lon="14.8039022325">
        <ele>166.8</ele>
        <time>2020-01-21T19:31:57Z</time>
      </trkpt>
      <trkpt lat="56.865629606436" lon="14.803763847331">
        <ele>166.6</ele>
        <time>2020-01-21T19:32:04Z</time>
      </trkpt>
      <trkpt lat="56.865506224868" lon="14.803673155173">
        <ele>166.4</ele>
        <time>2020-01-21T19:32:08Z</time>
      </trkpt>
      <trkpt lat="56.86527890774" lon="14.803619511013">
        <ele>165.8</ele>
        <time>2020-01-21T19:32:14Z</time>
      </trkpt>
      <trkpt lat="56.865225347399" lon="14.803618421366">
        <ele>165.8</ele>
        <time>2020-01-21T19:32:15Z</time>
      </trkpt>
      <trkpt lat="56.865042035246" lon="14.80361138057">
        <ele>165.8</ele>
        <time>2020-01-21T19:32:19Z</time>
      </trkpt>
      <trkpt lat="56.864861908215" lon="14.803626048895">
        <ele>165.6</ele>
        <time>2020-01-21T19:32:25Z</time>
      </trkpt>
      <trkpt lat="56.864671136171" lon="14.803635520442">
        <ele>165.6</ele>
        <time>2020-01-21T19:32:31Z</time>
      </trkpt>
      <trkpt lat="56.864485057991" lon="14.803666617291">
        <ele>165.6</ele>
        <time>2020-01-21T19:32:37Z</time>
      </trkpt>
      <trkpt lat="56.86430409277" lon="14.803670808241">
        <ele>166</ele>
        <time>2020-01-21T19:32:42Z</time>
      </trkpt>
      <trkpt lat="56.864112817812" lon="14.803712885379">
        <ele>165.8</ele>
        <time>2020-01-21T19:32:48Z</time>
      </trkpt>
      <trkpt lat="56.863996141764" lon="14.803762841503">
        <ele>165.6</ele>
        <time>2020-01-21T19:32:52Z</time>
      </trkpt>
      <trkpt lat="56.863818613122" lon="14.803921762327">
        <ele>166</ele>
        <time>2020-01-21T19:32:57Z</time>
      </trkpt>
      <trkpt lat="56.863661787773" lon="14.804129130533">
        <ele>166.4</ele>
        <time>2020-01-21T19:33:02Z</time>
      </trkpt>
      <trkpt lat="56.863511584125" lon="14.804418808997">
        <ele>166.4</ele>
        <time>2020-01-21T19:33:08Z</time>
      </trkpt>
      <trkpt lat="56.863383843969" lon="14.804656771138">
        <ele>166.2</ele>
        <time>2020-01-21T19:33:13Z</time>
      </trkpt>
      <trkpt lat="56.863230036104" lon="14.804910910346">
        <ele>166.2</ele>
        <time>2020-01-21T19:33:19Z</time>
      </trkpt>
      <trkpt lat="56.863096177161" lon="14.805194050928">
        <ele>165.8</ele>
        <time>2020-01-21T19:33:25Z</time>
      </trkpt>
      <trkpt lat="56.862977070362" lon="14.805446681394">
        <ele>165.4</ele>
        <time>2020-01-21T19:33:30Z</time>
      </trkpt>
      <trkpt lat="56.862841786496" lon="14.80571104652">
        <ele>165.2</ele>
        <time>2020-01-21T19:33:36Z</time>
      </trkpt>
      <trkpt lat="56.862711028856" lon="14.80595915076">
        <ele>165.2</ele>
        <time>2020-01-21T19:33:42Z</time>
      </trkpt>
      <trkpt lat="56.862580857949" lon="14.806230808139">
        <ele>165.2</ele>
        <time>2020-01-21T19:33:48Z</time>
      </trkpt>
      <trkpt lat="56.862455632363" lon="14.806520235146">
        <ele>165</ele>
        <time>2020-01-21T19:33:54Z</time>
      </trkpt>
      <trkpt lat="56.862333424261" lon="14.806823073193">
        <ele>165</ele>
        <time>2020-01-21T19:34:00Z</time>
      </trkpt>
      <trkpt lat="56.862215993842" lon="14.807101519911">
        <ele>165.2</ele>
        <time>2020-01-21T19:34:06Z</time>
      </trkpt>
      <trkpt lat="56.862065957832" lon="14.807313498162">
        <ele>165.8</ele>
        <time>2020-01-21T19:34:13Z</time>
      </trkpt>
      <trkpt lat="56.861922040609" lon="14.807542575489">
        <ele>165.8</ele>
        <time>2020-01-21T19:34:20Z</time>
      </trkpt>
      <trkpt lat="56.861808046769" lon="14.807746004202">
        <ele>166</ele>
        <time>2020-01-21T19:34:25Z</time>
      </trkpt>
      <trkpt lat="56.861707715426" lon="14.808034006286">
        <ele>166.2</ele>
        <time>2020-01-21T19:34:31Z</time>
      </trkpt>
      <trkpt lat="56.861587854256" lon="14.808283786906">
        <ele>166</ele>
        <time>2020-01-21T19:34:37Z</time>
      </trkpt>
      <trkpt lat="56.86148861256" lon="14.808574806474">
        <ele>166.2</ele>
        <time>2020-01-21T19:34:43Z</time>
      </trkpt>
      <trkpt lat="56.861395741108" lon="14.808863982024">
        <ele>165.6</ele>
        <time>2020-01-21T19:34:49Z</time>
      </trkpt>
      <trkpt lat="56.861298175792" lon="14.809160366008">
        <ele>164.8</ele>
        <time>2020-01-21T19:34:55Z</time>
      </trkpt>
      <trkpt lat="56.861249393134" lon="14.809337978469">
        <ele>164.6</ele>
        <time>2020-01-21T19:34:58Z</time>
      </trkpt>
      <trkpt lat="56.861180577735" lon="14.809651880624">
        <ele>164.2</ele>
        <time>2020-01-21T19:35:03Z</time>
      </trkpt>
      <trkpt lat="56.861104470083" lon="14.810014984532">
        <ele>164</ele>
        <time>2020-01-21T19:35:09Z</time>
      </trkpt>
      <trkpt lat="56.861081419858" lon="14.810343890288">
        <ele>164.4</ele>
        <time>2020-01-21T19:35:15Z</time>
      </trkpt>
      <trkpt lat="56.861065661886" lon="14.810697774106">
        <ele>164.4</ele>
        <time>2020-01-21T19:35:22Z</time>
      </trkpt>
      <trkpt lat="56.861033978304" lon="14.811023662378">
        <ele>164.4</ele>
        <time>2020-01-21T19:35:27Z</time>
      </trkpt>
      <trkpt lat="56.861084353523" lon="14.811378552024">
        <ele>164.8</ele>
        <time>2020-01-21T19:35:33Z</time>
      </trkpt>
      <trkpt lat="56.861203711779" lon="14.81170326683">
        <ele>164.8</ele>
        <time>2020-01-21T19:35:39Z</time>
      </trkpt>
      <trkpt lat="56.861303540208" lon="14.812009289999">
        <ele>164</ele>
        <time>2020-01-21T19:35:44Z</time>
      </trkpt>
      <trkpt lat="56.861419545704" lon="14.81229754354">
        <ele>164.6</ele>
        <time>2020-01-21T19:35:50Z</time>
      </trkpt>
      <trkpt lat="56.861551812086" lon="14.812529470713">
        <ele>165.4</ele>
        <time>2020-01-21T19:35:56Z</time>
      </trkpt>
      <trkpt lat="56.861575951958" lon="14.81256241158">
        <ele>165.6</ele>
        <time>2020-01-21T19:35:57Z</time>
      </trkpt>
      <trkpt lat="56.86175012784" lon="14.812730552494">
        <ele>165.2</ele>
        <time>2020-01-21T19:36:03Z</time>
      </trkpt>
      <trkpt lat="56.861923968446" lon="14.812939010347">
        <ele>165.8</ele>
        <time>2020-01-21T19:36:09Z</time>
      </trkpt>
      <trkpt lat="56.862001668659" lon="14.81308125119">
        <ele>165.8</ele>
        <time>2020-01-21T19:36:12Z</time>
      </trkpt>
      <trkpt lat="56.862170396306" lon="14.813297168934">
        <ele>166.2</ele>
        <time>2020-01-21T19:36:18Z</time>
      </trkpt>
      <trkpt lat="56.862342895808" lon="14.813408899661">
        <ele>165.4</ele>
        <time>2020-01-21T19:36:24Z</time>
      </trkpt>
      <trkpt lat="56.862543390856" lon="14.813445109469">
        <ele>165.2</ele>
        <time>2020-01-21T19:36:32Z</time>
      </trkpt>
      <trkpt lat="56.862747071026" lon="14.813561366422">
        <ele>165.4</ele>
        <time>2020-01-21T19:36:38Z</time>
      </trkpt>
      <trkpt lat="56.86289509538" lon="14.813800585848">
        <ele>165.8</ele>
        <time>2020-01-21T19:36:43Z</time>
      </trkpt>
      <trkpt lat="56.863002132243" lon="14.814093952348">
        <ele>165.8</ele>
        <time>2020-01-21T19:36:48Z</time>
      </trkpt>
      <trkpt lat="56.863012693437" lon="14.814430820909">
        <ele>165.8</ele>
        <time>2020-01-21T19:36:53Z</time>
      </trkpt>
      <trkpt lat="56.862931305188" lon="14.814776406646">
        <ele>166.4</ele>
        <time>2020-01-21T19:36:59Z</time>
      </trkpt>
      <trkpt lat="56.862796272779" lon="14.815008585276">
        <ele>166.2</ele>
        <time>2020-01-21T19:37:05Z</time>
      </trkpt>
      <trkpt lat="56.862655205402" lon="14.81526892709">
        <ele>166.2</ele>
        <time>2020-01-21T19:37:13Z</time>
      </trkpt>
      <trkpt lat="56.862501481356" lon="14.81545835803">
        <ele>166.4</ele>
        <time>2020-01-21T19:37:19Z</time>
      </trkpt>
      <trkpt lat="56.862347086758" lon="14.815660278001">
        <ele>166.4</ele>
        <time>2020-01-21T19:37:25Z</time>
      </trkpt>
      <trkpt lat="56.862228399054" lon="14.8158212943">
        <ele>166.6</ele>
        <time>2020-01-21T19:37:29Z</time>
      </trkpt>
      <trkpt lat="56.862071070791" lon="14.816052802378">
        <ele>166.4</ele>
        <time>2020-01-21T19:37:34Z</time>
      </trkpt>
      <trkpt lat="56.861926734473" lon="14.816261092593">
        <ele>166</ele>
        <time>2020-01-21T19:37:40Z</time>
      </trkpt>
      <trkpt lat="56.861775692635" lon="14.816465694772">
        <ele>166</ele>
        <time>2020-01-21T19:37:46Z</time>
      </trkpt>
      <trkpt lat="56.861732442031" lon="14.816796779822">
        <ele>166</ele>
        <time>2020-01-21T19:37:52Z</time>
      </trkpt>
      <trkpt lat="56.861802430896" lon="14.817097103299">
        <ele>165.8</ele>
        <time>2020-01-21T19:37:58Z</time>
      </trkpt>
      <trkpt lat="56.861896727271" lon="14.817414022938">
        <ele>165.6</ele>
        <time>2020-01-21T19:38:03Z</time>
      </trkpt>
      <trkpt lat="56.861934110545" lon="14.817535476669">
        <ele>165.6</ele>
        <time>2020-01-21T19:38:05Z</time>
      </trkpt>
      <trkpt lat="56.861979372805" lon="14.817885253356">
        <ele>165.6</ele>
        <time>2020-01-21T19:38:11Z</time>
      </trkpt>
      <trkpt lat="56.862031256766" lon="14.818235197681">
        <ele>165.8</ele>
        <time>2020-01-21T19:38:17Z</time>
      </trkpt>
      <trkpt lat="56.862061850701" lon="14.818580531961">
        <ele>166</ele>
        <time>2020-01-21T19:38:23Z</time>
      </trkpt>
      <trkpt lat="56.861930673966" lon="14.818860822697">
        <ele>166.4</ele>
        <time>2020-01-21T19:38:29Z</time>
      </trkpt>
      <trkpt lat="56.861772926608" lon="14.81911957195">
        <ele>166.4</ele>
        <time>2020-01-21T19:38:35Z</time>
      </trkpt>
      <trkpt lat="56.861622387684" lon="14.819388044207">
        <ele>166.4</ele>
        <time>2020-01-21T19:38:40Z</time>
      </trkpt>
      <trkpt lat="56.861580142908" lon="14.819522406064">
        <ele>166.6</ele>
        <time>2020-01-21T19:38:42Z</time>
      </trkpt>
      <trkpt lat="56.861562960013" lon="14.819902860505">
        <ele>166.8</ele>
        <time>2020-01-21T19:38:47Z</time>
      </trkpt>
      <trkpt lat="56.861570168447" lon="14.820267640793">
        <ele>166.6</ele>
        <time>2020-01-21T19:38:54Z</time>
      </trkpt>
      <trkpt lat="56.861687934142" lon="14.820512811368">
        <ele>166.6</ele>
        <time>2020-01-21T19:38:57Z</time>
      </trkpt>
      <trkpt lat="56.861778542481" lon="14.82084456697">
        <ele>167</ele>
        <time>2020-01-21T19:39:01Z</time>
      </trkpt>
      <trkpt lat="56.861804023457" lon="14.820910867799">
        <ele>167</ele>
        <time>2020-01-21T19:39:02Z</time>
      </trkpt>
      <trkpt lat="56.861915502727" lon="14.821060903809">
        <ele>166.8</ele>
        <time>2020-01-21T19:39:06Z</time>
      </trkpt>
      <trkpt lat="56.862078195406" lon="14.820880441502">
        <ele>167.2</ele>
        <time>2020-01-21T19:39:13Z</time>
      </trkpt>
      <trkpt lat="56.862130498462" lon="14.820835011604">
        <ele>167.6</ele>
        <time>2020-01-21T19:39:15Z</time>
      </trkpt>
      <trkpt lat="56.862297633548" lon="14.820633426909">
        <ele>168.2</ele>
        <time>2020-01-21T19:39:22Z</time>
      </trkpt>
      <trkpt lat="56.862468624308" lon="14.820477272112">
        <ele>168</ele>
        <time>2020-01-21T19:39:30Z</time>
      </trkpt>
      <trkpt lat="56.862652607013" lon="14.820360512245">
        <ele>167.6</ele>
        <time>2020-01-21T19:39:37Z</time>
      </trkpt>
      <trkpt lat="56.86285653864" lon="14.82027627415">
        <ele>167.2</ele>
        <time>2020-01-21T19:39:44Z</time>
      </trkpt>
      <trkpt lat="56.862977824733" lon="14.820209638045">
        <ele>166.6</ele>
        <time>2020-01-21T19:39:48Z</time>
      </trkpt>
      <trkpt lat="56.863167590949" lon="14.820119951715">
        <ele>166</ele>
        <time>2020-01-21T19:39:54Z</time>
      </trkpt>
      <trkpt lat="56.863327098506" lon="14.819967149678">
        <ele>166.6</ele>
        <time>2020-01-21T19:39:58Z</time>
      </trkpt>
      <trkpt lat="56.863511584125" lon="14.819859358444">
        <ele>166.2</ele>
        <time>2020-01-21T19:40:04Z</time>
      </trkpt>
      <trkpt lat="56.863693471355" lon="14.819808899406">
        <ele>166.2</ele>
        <time>2020-01-21T19:40:10Z</time>
      </trkpt>
      <trkpt lat="56.863885333046" lon="14.81993764539">
        <ele>166.4</ele>
        <time>2020-01-21T19:40:16Z</time>
      </trkpt>
      <trkpt lat="56.864058251643" lon="14.820037306181">
        <ele>166.4</ele>
        <time>2020-01-21T19:40:21Z</time>
      </trkpt>
      <trkpt lat="56.864093371804" lon="14.820057255103">
        <ele>166.4</ele>
        <time>2020-01-21T19:40:22Z</time>
      </trkpt>
      <trkpt lat="56.86427559431" lon="14.820172422409">
        <ele>166.6</ele>
        <time>2020-01-21T19:40:27Z</time>
      </trkpt>
      <trkpt lat="56.864432000564" lon="14.82036344591">
        <ele>166.2</ele>
        <time>2020-01-21T19:40:32Z</time>
      </trkpt>
      <trkpt lat="56.86454213873" lon="14.820627894855">
        <ele>166.6</ele>
        <time>2020-01-21T19:40:37Z</time>
      </trkpt>
      <trkpt lat="56.864680607718" lon="14.820905671021">
        <ele>166.4</ele>
        <time>2020-01-21T19:40:42Z</time>
      </trkpt>
      <trkpt lat="56.864843719492" lon="14.821144219895">
        <ele>166.6</ele>
        <time>2020-01-21T19:40:48Z</time>
      </trkpt>
      <trkpt lat="56.865033988622" lon="14.821265422169">
        <ele>167.2</ele>
        <time>2020-01-21T19:40:54Z</time>
      </trkpt>
      <trkpt lat="56.865220821173" lon="14.821394922524">
        <ele>167.2</ele>
        <time>2020-01-21T19:41:00Z</time>
      </trkpt>
      <trkpt lat="56.86539206339" lon="14.821587370948">
        <ele>166.6</ele>
        <time>2020-01-21T19:41:06Z</time>
      </trkpt>
      <trkpt lat="56.865545200703" lon="14.821775293146">
        <ele>166.2</ele>
        <time>2020-01-21T19:41:11Z</time>
      </trkpt>
      <trkpt lat="56.865693308876" lon="14.822056086796">
        <ele>166.8</ele>
        <time>2020-01-21T19:41:17Z</time>
      </trkpt>
      <trkpt lat="56.865783162844" lon="14.82236336725">
        <ele>167</ele>
        <time>2020-01-21T19:41:23Z</time>
      </trkpt>
      <trkpt lat="56.865876201934" lon="14.822651453153">
        <ele>167</ele>
        <time>2020-01-21T19:41:29Z</time>
      </trkpt>
      <trkpt lat="56.865949543559" lon="14.823003241496">
        <ele>166.6</ele>
        <time>2020-01-21T19:41:35Z</time>
      </trkpt>
      <trkpt lat="56.866010144696" lon="14.823366764499">
        <ele>167</ele>
        <time>2020-01-21T19:41:41Z</time>
      </trkpt>
      <trkpt lat="56.866034200749" lon="14.8237505717">
        <ele>167.4</ele>
        <time>2020-01-21T19:41:47Z</time>
      </trkpt>
      <trkpt lat="56.866035374215" lon="14.824121973689">
        <ele>167.4</ele>
        <time>2020-01-21T19:41:53Z</time>
      </trkpt>
      <trkpt lat="56.866038224061" lon="14.824451717635">
        <ele>166.8</ele>
        <time>2020-01-21T19:41:58Z</time>
      </trkpt>
      <trkpt lat="56.866021124985" lon="14.824826053289">
        <ele>166.6</ele>
        <time>2020-01-21T19:42:04Z</time>
      </trkpt>
      <trkpt lat="56.865978209657" lon="14.82519896402">
        <ele>166.6</ele>
        <time>2020-01-21T19:42:10Z</time>
      </trkpt>
      <trkpt lat="56.865905370946" lon="14.825540610264">
        <ele>167.2</ele>
        <time>2020-01-21T19:42:16Z</time>
      </trkpt>
      <trkpt lat="56.865781905559" lon="14.825844705596">
        <ele>167</ele>
        <time>2020-01-21T19:42:23Z</time>
      </trkpt>
      <trkpt lat="56.865641424915" lon="14.826094570035">
        <ele>167.2</ele>
        <time>2020-01-21T19:42:30Z</time>
      </trkpt>
      <trkpt lat="56.865487533231" lon="14.826296238549">
        <ele>167.2</ele>
        <time>2020-01-21T19:42:36Z</time>
      </trkpt>
      <trkpt lat="56.865315285186" lon="14.82649312938">
        <ele>167.2</ele>
        <time>2020-01-21T19:42:44Z</time>
      </trkpt>
      <trkpt lat="56.865156112905" lon="14.826680129569">
        <ele>167.6</ele>
        <time>2020-01-21T19:42:49Z</time>
      </trkpt>
      <trkpt lat="56.865020577582" lon="14.826903255747">
        <ele>168</ele>
        <time>2020-01-21T19:42:54Z</time>
      </trkpt>
      <trkpt lat="56.864872134133" lon="14.827147588132">
        <ele>168.4</ele>
        <time>2020-01-21T19:43:00Z</time>
      </trkpt>
      <trkpt lat="56.86474162795" lon="14.827450426179">
        <ele>168.6</ele>
        <time>2020-01-21T19:43:06Z</time>
      </trkpt>
      <trkpt lat="56.864726289073" lon="14.827485127245">
        <ele>168.6</ele>
        <time>2020-01-21T19:43:07Z</time>
      </trkpt>
      <trkpt lat="56.864576839796" lon="14.827715294219">
        <ele>168.8</ele>
        <time>2020-01-21T19:43:13Z</time>
      </trkpt>
      <trkpt lat="56.864465611983" lon="14.828011426746">
        <ele>168.6</ele>
        <time>2020-01-21T19:43:18Z</time>
      </trkpt>
      <trkpt lat="56.864462929775" lon="14.828079571593">
        <ele>168.4</ele>
        <time>2020-01-21T19:43:19Z</time>
      </trkpt>
      <trkpt lat="56.864556890874" lon="14.828415182869">
        <ele>168</ele>
        <time>2020-01-21T19:43:24Z</time>
      </trkpt>
      <trkpt lat="56.864670884714" lon="14.828686253515">
        <ele>167.8</ele>
        <time>2020-01-21T19:43:29Z</time>
      </trkpt>
      <trkpt lat="56.8647877284" lon="14.828947098243">
        <ele>167.8</ele>
        <time>2020-01-21T19:43:34Z</time>
      </trkpt>
      <trkpt lat="56.864853442496" lon="14.829121441763">
        <ele>167.6</ele>
        <time>2020-01-21T19:43:37Z</time>
      </trkpt>
      <trkpt lat="56.864978165168" lon="14.829432913167">
        <ele>167.2</ele>
        <time>2020-01-21T19:43:43Z</time>
      </trkpt>
      <trkpt lat="56.865094673578" lon="14.829685962728">
        <ele>167.4</ele>
        <time>2020-01-21T19:43:48Z</time>
      </trkpt>
      <trkpt lat="56.865121244201" lon="14.830032386655">
        <ele>167.2</ele>
        <time>2020-01-21T19:43:54Z</time>
      </trkpt>
      <trkpt lat="56.865094925035" lon="14.83041502039">
        <ele>167.2</ele>
        <time>2020-01-21T19:44:01Z</time>
      </trkpt>
      <trkpt lat="56.86503499445" lon="14.83074359087">
        <ele>166.8</ele>
        <time>2020-01-21T19:44:06Z</time>
      </trkpt>
      <trkpt lat="56.864960144083" lon="14.830931848344">
        <ele>166.6</ele>
        <time>2020-01-21T19:44:10Z</time>
      </trkpt>
      <trkpt lat="56.864966849603" lon="14.83118364062">
        <ele>167.8</ele>
        <time>2020-01-21T19:44:14Z</time>
      </trkpt>
      <trkpt lat="56.865101295279" lon="14.831441467864">
        <ele>167.4</ele>
        <time>2020-01-21T19:44:20Z</time>
      </trkpt>
      <trkpt lat="56.865220066802" lon="14.831705246257">
        <ele>167.2</ele>
        <time>2020-01-21T19:44:25Z</time>
      </trkpt>
      <trkpt lat="56.865285445622" lon="14.832017388213">
        <ele>167.2</ele>
        <time>2020-01-21T19:44:30Z</time>
      </trkpt>
      <trkpt lat="56.865279913568" lon="14.832387197641">
        <ele>167.4</ele>
        <time>2020-01-21T19:44:36Z</time>
      </trkpt>
      <trkpt lat="56.865208835056" lon="14.832578137323">
        <ele>167.6</ele>
        <time>2020-01-21T19:44:41Z</time>
      </trkpt>
      <trkpt lat="56.865082436004" lon="14.832842167173">
        <ele>167.8</ele>
        <time>2020-01-21T19:44:48Z</time>
      </trkpt>
      <trkpt lat="56.864981098833" lon="14.833123547556">
        <ele>167.8</ele>
        <time>2020-01-21T19:44:53Z</time>
      </trkpt>
      <trkpt lat="56.864870290115" lon="14.833466953999">
        <ele>167.6</ele>
        <time>2020-01-21T19:44:58Z</time>
      </trkpt>
      <trkpt lat="56.864808766969" lon="14.833781442887">
        <ele>167.4</ele>
        <time>2020-01-21T19:45:03Z</time>
      </trkpt>
      <trkpt lat="56.864743639606" lon="14.834152677238">
        <ele>167.4</ele>
        <time>2020-01-21T19:45:09Z</time>
      </trkpt>
      <trkpt lat="56.864599554745" lon="14.834368594982">
        <ele>167.8</ele>
        <time>2020-01-21T19:45:15Z</time>
      </trkpt>
      <trkpt lat="56.864410207624" lon="14.834513182757">
        <ele>167.4</ele>
        <time>2020-01-21T19:45:22Z</time>
      </trkpt>
      <trkpt lat="56.864252544085" lon="14.834747037767">
        <ele>167.8</ele>
        <time>2020-01-21T19:45:28Z</time>
      </trkpt>
      <trkpt lat="56.864136622408" lon="14.835006038477">
        <ele>167.6</ele>
        <time>2020-01-21T19:45:33Z</time>
      </trkpt>
      <trkpt lat="56.863998823972" lon="14.835281383892">
        <ele>167.8</ele>
        <time>2020-01-21T19:45:39Z</time>
      </trkpt>
      <trkpt lat="56.86385817569" lon="14.835490428478">
        <ele>167.8</ele>
        <time>2020-01-21T19:45:45Z</time>
      </trkpt>
      <trkpt lat="56.863701853255" lon="14.835700814168">
        <ele>167.8</ele>
        <time>2020-01-21T19:45:51Z</time>
      </trkpt>
      <trkpt lat="56.863530778676" lon="14.835908852926">
        <ele>168</ele>
        <time>2020-01-21T19:45:57Z</time>
      </trkpt>
      <trkpt lat="56.86335526169" lon="14.836108593603">
        <ele>168.2</ele>
        <time>2020-01-21T19:46:03Z</time>
      </trkpt>
      <trkpt lat="56.863189886803" lon="14.8363066579">
        <ele>168.4</ele>
        <time>2020-01-21T19:46:09Z</time>
      </trkpt>
      <trkpt lat="56.86305183691" lon="14.836565323334">
        <ele>168.4</ele>
        <time>2020-01-21T19:46:15Z</time>
      </trkpt>
      <trkpt lat="56.862926192229" lon="14.836854582703">
        <ele>168.4</ele>
        <time>2020-01-21T19:46:21Z</time>
      </trkpt>
      <trkpt lat="56.862765092111" lon="14.837090449369">
        <ele>168.2</ele>
        <time>2020-01-21T19:46:27Z</time>
      </trkpt>
      <trkpt lat="56.86261346354" lon="14.837267978011">
        <ele>168</ele>
        <time>2020-01-21T19:46:32Z</time>
      </trkpt>
      <trkpt lat="56.862423613505" lon="14.837471993457">
        <ele>168.4</ele>
        <time>2020-01-21T19:46:37Z</time>
      </trkpt>
      <trkpt lat="56.862231165081" lon="14.837543574883">
        <ele>168.2</ele>
        <time>2020-01-21T19:46:43Z</time>
      </trkpt>
      <trkpt lat="56.862036956458" lon="14.83747760933">
        <ele>168.4</ele>
        <time>2020-01-21T19:46:49Z</time>
      </trkpt>
      <trkpt lat="56.861950119974" lon="14.837423629894">
        <ele>168.8</ele>
        <time>2020-01-21T19:46:52Z</time>
      </trkpt>
      <trkpt lat="56.861775105902" lon="14.837296308833">
        <ele>169.2</ele>
        <time>2020-01-21T19:46:58Z</time>
      </trkpt>
      <trkpt lat="56.861584585315" lon="14.837229840366">
        <ele>169.2</ele>
        <time>2020-01-21T19:47:06Z</time>
      </trkpt>
      <trkpt lat="56.861401859895" lon="14.837147865384">
        <ele>169.6</ele>
        <time>2020-01-21T19:47:13Z</time>
      </trkpt>
      <trkpt lat="56.861301360914" lon="14.837123809331">
        <ele>169.8</ele>
        <time>2020-01-21T19:47:15Z</time>
      </trkpt>
      <trkpt lat="56.861094244165" lon="14.837061364176">
        <ele>169.8</ele>
        <time>2020-01-21T19:47:20Z</time>
      </trkpt>
      <trkpt lat="56.86091612879" lon="14.837088521532">
        <ele>170.6</ele>
        <time>2020-01-21T19:47:27Z</time>
      </trkpt>
      <trkpt lat="56.860751256817" lon="14.837241323569">
        <ele>170.4</ele>
        <time>2020-01-21T19:47:32Z</time>
      </trkpt>
      <trkpt lat="56.860576494202" lon="14.837318437049">
        <ele>170.6</ele>
        <time>2020-01-21T19:47:38Z</time>
      </trkpt>
      <trkpt lat="56.860374071317" lon="14.837345259129">
        <ele>169.4</ele>
        <time>2020-01-21T19:47:44Z</time>
      </trkpt>
      <trkpt lat="56.860285390815" lon="14.837372500304">
        <ele>168.6</ele>
        <time>2020-01-21T19:47:47Z</time>
      </trkpt>
      <trkpt lat="56.860163350351" lon="14.837432766165">
        <ele>167.8</ele>
        <time>2020-01-21T19:47:51Z</time>
      </trkpt>
      <trkpt lat="56.859966710977" lon="14.837457828046">
        <ele>167.8</ele>
        <time>2020-01-21T19:47:57Z</time>
      </trkpt>
      <trkpt lat="56.859781135711" lon="14.837422959342">
        <ele>168</ele>
        <time>2020-01-21T19:48:02Z</time>
      </trkpt>
      <trkpt lat="56.859589106382" lon="14.837308211131">
        <ele>168.8</ele>
        <time>2020-01-21T19:48:08Z</time>
      </trkpt>
      <trkpt lat="56.859467317375" lon="14.837018448848">
        <ele>167.8</ele>
        <time>2020-01-21T19:48:15Z</time>
      </trkpt>
      <trkpt lat="56.859400848908" lon="14.83669641625">
        <ele>168</ele>
        <time>2020-01-21T19:48:21Z</time>
      </trkpt>
      <trkpt lat="56.859317197546" lon="14.83634270007">
        <ele>168.8</ele>
        <time>2020-01-21T19:48:28Z</time>
      </trkpt>
      <trkpt lat="56.859207143199" lon="14.836016308884">
        <ele>168.2</ele>
        <time>2020-01-21T19:48:34Z</time>
      </trkpt>
      <trkpt lat="56.859091472979" lon="14.835717997063">
        <ele>168.6</ele>
        <time>2020-01-21T19:48:40Z</time>
      </trkpt>
      <trkpt lat="56.858975467483" lon="14.835426809857">
        <ele>168.2</ele>
        <time>2020-01-21T19:48:46Z</time>
      </trkpt>
      <trkpt lat="56.858924337893" lon="14.835207036439">
        <ele>167.6</ele>
        <time>2020-01-21T19:48:51Z</time>
      </trkpt>
      <trkpt lat="56.858904053695" lon="14.83507619498">
        <ele>168.2</ele>
        <time>2020-01-21T19:48:54Z</time>
      </trkpt>
      <trkpt lat="56.858860635453" lon="14.834975528361">
        <ele>168.8</ele>
        <time>2020-01-21T19:48:56Z</time>
      </trkpt>
      <trkpt lat="56.858740271369" lon="14.834707056104">
        <ele>168.8</ele>
        <time>2020-01-21T19:49:02Z</time>
      </trkpt>
      <trkpt lat="56.858624852606" lon="14.834388627723">
        <ele>169.2</ele>
        <time>2020-01-21T19:49:09Z</time>
      </trkpt>
      <trkpt lat="56.858525275634" lon="14.83408880716">
        <ele>168.6</ele>
        <time>2020-01-21T19:49:15Z</time>
      </trkpt>
      <trkpt lat="56.858455454407" lon="14.833845061508">
        <ele>167.8</ele>
        <time>2020-01-21T19:49:19Z</time>
      </trkpt>
      <trkpt lat="56.858357553815" lon="14.833530824077">
        <ele>167.8</ele>
        <time>2020-01-21T19:49:26Z</time>
      </trkpt>
      <trkpt lat="56.858278847774" lon="14.833363353715">
        <ele>168.4</ele>
        <time>2020-01-21T19:49:30Z</time>
      </trkpt>
      <trkpt lat="56.858141133157" lon="14.833075016355">
        <ele>168.4</ele>
        <time>2020-01-21T19:49:37Z</time>
      </trkpt>
      <trkpt lat="56.858028899516" lon="14.832794055067">
        <ele>168.4</ele>
        <time>2020-01-21T19:49:44Z</time>
      </trkpt>
      <trkpt lat="56.857936111883" lon="14.832479901455">
        <ele>167.8</ele>
        <time>2020-01-21T19:49:51Z</time>
      </trkpt>
      <trkpt lat="56.857839384757" lon="14.832349311453">
        <ele>168.8</ele>
        <time>2020-01-21T19:49:55Z</time>
      </trkpt>
      <trkpt lat="56.85769245005" lon="14.832120234126">
        <ele>168.8</ele>
        <time>2020-01-21T19:50:01Z</time>
      </trkpt>
      <trkpt lat="56.85757761802" lon="14.831824436875">
        <ele>170</ele>
        <time>2020-01-21T19:50:07Z</time>
      </trkpt>
      <trkpt lat="56.857533361588" lon="14.831542469759">
        <ele>170.4</ele>
        <time>2020-01-21T19:50:12Z</time>
      </trkpt>
      <trkpt lat="56.857603853367" lon="14.831273662226">
        <ele>170.8</ele>
        <time>2020-01-21T19:50:17Z</time>
      </trkpt>
      <trkpt lat="56.857638554433" lon="14.83119453709">
        <ele>171.2</ele>
        <time>2020-01-21T19:50:19Z</time>
      </trkpt>
      <trkpt lat="56.857800911836" lon="14.83102857547">
        <ele>169.8</ele>
        <time>2020-01-21T19:50:25Z</time>
      </trkpt>
      <trkpt lat="56.85783997149" lon="14.830941319891">
        <ele>168.8</ele>
        <time>2020-01-21T19:50:27Z</time>
      </trkpt>
      <trkpt lat="56.857935860426" lon="14.83065390454">
        <ele>169.6</ele>
        <time>2020-01-21T19:50:33Z</time>
      </trkpt>
      <trkpt lat="56.858039795986" lon="14.830360705678">
        <ele>169.4</ele>
        <time>2020-01-21T19:50:40Z</time>
      </trkpt>
      <trkpt lat="56.858141049338" lon="14.830029620628">
        <ele>168.8</ele>
        <time>2020-01-21T19:50:46Z</time>
      </trkpt>
      <trkpt lat="56.85817273292" lon="14.829921075023">
        <ele>167.8</ele>
        <time>2020-01-21T19:50:48Z</time>
      </trkpt>
      <trkpt lat="56.858209445642" lon="14.829739690707">
        <ele>166.8</ele>
        <time>2020-01-21T19:50:51Z</time>
      </trkpt>
      <trkpt lat="56.858244565803" lon="14.829554869812">
        <ele>165.4</ele>
        <time>2020-01-21T19:50:54Z</time>
      </trkpt>
      <trkpt lat="56.858280524154" lon="14.829400139938">
        <ele>164.2</ele>
        <time>2020-01-21T19:50:57Z</time>
      </trkpt>
      <trkpt lat="56.858301059809" lon="14.829244571874">
        <ele>163</ele>
        <time>2020-01-21T19:51:00Z</time>
      </trkpt>
      <trkpt lat="56.858355625978" lon="14.828925808217">
        <ele>162.6</ele>
        <time>2020-01-21T19:51:06Z</time>
      </trkpt>
      <trkpt lat="56.858385884637" lon="14.828758337855">
        <ele>162.6</ele>
        <time>2020-01-21T19:51:09Z</time>
      </trkpt>
      <trkpt lat="56.858448245973" lon="14.828440160931">
        <ele>163.8</ele>
        <time>2020-01-21T19:51:15Z</time>
      </trkpt>
      <trkpt lat="56.85847029037" lon="14.828342344158">
        <ele>164.4</ele>
        <time>2020-01-21T19:51:17Z</time>
      </trkpt>
      <trkpt lat="56.858534160448" lon="14.828028274365">
        <ele>164.2</ele>
        <time>2020-01-21T19:51:23Z</time>
      </trkpt>
      <trkpt lat="56.858592833748" lon="14.82771772497">
        <ele>164.6</ele>
        <time>2020-01-21T19:51:29Z</time>
      </trkpt>
      <trkpt lat="56.858675395463" lon="14.827376330183">
        <ele>163</ele>
        <time>2020-01-21T19:51:36Z</time>
      </trkpt>
      <trkpt lat="56.858742199206" lon="14.827085310615">
        <ele>162</ele>
        <time>2020-01-21T19:51:42Z</time>
      </trkpt>
      <trkpt lat="56.858829538604" lon="14.826758165058">
        <ele>162.8</ele>
        <time>2020-01-21T19:51:49Z</time>
      </trkpt>
      <trkpt lat="56.858842782006" lon="14.826711226418">
        <ele>163.2</ele>
        <time>2020-01-21T19:51:50Z</time>
      </trkpt>
      <trkpt lat="56.858923918798" lon="14.826423727248">
        <ele>164.4</ele>
        <time>2020-01-21T19:51:56Z</time>
      </trkpt>
      <trkpt lat="56.859003798305" lon="14.826118039355">
        <ele>165</ele>
        <time>2020-01-21T19:52:02Z</time>
      </trkpt>
      <trkpt lat="56.859071021143" lon="14.825845459967">
        <ele>165.4</ele>
        <time>2020-01-21T19:52:07Z</time>
      </trkpt>
      <trkpt lat="56.859139249809" lon="14.825516973306">
        <ele>166</ele>
        <time>2020-01-21T19:52:14Z</time>
      </trkpt>
      <trkpt lat="56.859209490131" lon="14.825164682049">
        <ele>165.2</ele>
        <time>2020-01-21T19:52:21Z</time>
      </trkpt>
      <trkpt lat="56.85929590752" lon="14.824865699676">
        <ele>165.2</ele>
        <time>2020-01-21T19:52:28Z</time>
      </trkpt>
      <trkpt lat="56.859438986553" lon="14.824629916829">
        <ele>165.4</ele>
        <time>2020-01-21T19:52:35Z</time>
      </trkpt>
      <trkpt lat="56.859613665349" lon="14.82445632768">
        <ele>165.2</ele>
        <time>2020-01-21T19:52:42Z</time>
      </trkpt>
      <trkpt lat="56.859807706334" lon="14.824349626093">
        <ele>165.2</ele>
        <time>2020-01-21T19:52:49Z</time>
      </trkpt>
      <trkpt lat="56.859996801998" lon="14.82429371882">
        <ele>164.6</ele>
        <time>2020-01-21T19:52:54Z</time>
      </trkpt>
      <trkpt lat="56.860030664874" lon="14.824277122658">
        <ele>164.2</ele>
        <time>2020-01-21T19:52:55Z</time>
      </trkpt>
      <trkpt lat="56.860194866295" lon="14.824125326449">
        <ele>163.8</ele>
        <time>2020-01-21T19:53:00Z</time>
      </trkpt>
      <trkpt lat="56.860257814364" lon="14.824060450543">
        <ele>163</ele>
        <time>2020-01-21T19:53:02Z</time>
      </trkpt>
      <trkpt lat="56.860417741016" lon="14.823859033486">
        <ele>164.4</ele>
        <time>2020-01-21T19:53:08Z</time>
      </trkpt>
      <trkpt lat="56.860496447057" lon="14.823733724081">
        <ele>165.6</ele>
        <time>2020-01-21T19:53:11Z</time>
      </trkpt>
      <trkpt lat="56.860649752008" lon="14.823516800509">
        <ele>165.8</ele>
        <time>2020-01-21T19:53:17Z</time>
      </trkpt>
      <trkpt lat="56.860788137177" lon="14.823270372649">
        <ele>165.4</ele>
        <time>2020-01-21T19:53:23Z</time>
      </trkpt>
      <trkpt lat="56.860831639238" lon="14.822900814678">
        <ele>165.4</ele>
        <time>2020-01-21T19:53:30Z</time>
      </trkpt>
      <trkpt lat="56.860868016684" lon="14.822800399516">
        <ele>165.4</ele>
        <time>2020-01-21T19:53:32Z</time>
      </trkpt>
      <trkpt lat="56.86102174073" lon="14.822597892812">
        <ele>166.2</ele>
        <time>2020-01-21T19:53:38Z</time>
      </trkpt>
      <trkpt lat="56.861118467856" lon="14.822297569335">
        <ele>164.4</ele>
        <time>2020-01-21T19:53:44Z</time>
      </trkpt>
      <trkpt lat="56.861245286003" lon="14.821989702148">
        <ele>165.6</ele>
        <time>2020-01-21T19:53:51Z</time>
      </trkpt>
      <trkpt lat="56.861377803842" lon="14.821724834108">
        <ele>165.4</ele>
        <time>2020-01-21T19:53:57Z</time>
      </trkpt>
      <trkpt lat="56.861526582567" lon="14.821509084002">
        <ele>165.8</ele>
        <time>2020-01-21T19:54:02Z</time>
      </trkpt>
      <trkpt lat="56.861640576407" lon="14.821233570949">
        <ele>166.2</ele>
        <time>2020-01-21T19:54:08Z</time>
      </trkpt>
      <trkpt lat="56.861699165888" lon="14.821089486088">
        <ele>166.6</ele>
        <time>2020-01-21T19:54:11Z</time>
      </trkpt>
      <trkpt lat="56.861765382898" lon="14.820885722099">
        <ele>166.2</ele>
        <time>2020-01-21T19:54:15Z</time>
      </trkpt>
      <trkpt lat="56.861684832839" lon="14.820589254296">
        <ele>166.6</ele>
        <time>2020-01-21T19:54:21Z</time>
      </trkpt>
      <trkpt lat="56.861665386831" lon="14.82040367903">
        <ele>165.6</ele>
        <time>2020-01-21T19:54:25Z</time>
      </trkpt>
      <trkpt lat="56.861678965509" lon="14.820351878888">
        <ele>165.4</ele>
        <time>2020-01-21T19:54:26Z</time>
      </trkpt>
      <trkpt lat="56.861647198108" lon="14.820127746882">
        <ele>164.6</ele>
        <time>2020-01-21T19:54:31Z</time>
      </trkpt>
      <trkpt lat="56.861571090456" lon="14.819808396492">
        <ele>164.8</ele>
        <time>2020-01-21T19:54:34Z</time>
      </trkpt>
      <trkpt lat="56.86161015011" lon="14.819475299786">
        <ele>164.4</ele>
        <time>2020-01-21T19:54:41Z</time>
      </trkpt>
      <trkpt lat="56.861625908082" lon="14.819437748874">
        <ele>164.4</ele>
        <time>2020-01-21T19:54:42Z</time>
      </trkpt>
      <trkpt lat="56.861800586878" lon="14.81926122606">
        <ele>164.4</ele>
        <time>2020-01-21T19:54:49Z</time>
      </trkpt>
      <trkpt lat="56.861977947882" lon="14.819059138451">
        <ele>164.8</ele>
        <time>2020-01-21T19:54:55Z</time>
      </trkpt>
      <trkpt lat="56.862060509597" lon="14.818878340868">
        <ele>164.6</ele>
        <time>2020-01-21T19:54:59Z</time>
      </trkpt>
      <trkpt lat="56.862025305617" lon="14.818524792326">
        <ele>165</ele>
        <time>2020-01-21T19:55:07Z</time>
      </trkpt>
      <trkpt lat="56.862041063589" lon="14.818353885385">
        <ele>164.6</ele>
        <time>2020-01-21T19:55:11Z</time>
      </trkpt>
      <trkpt lat="56.862199313861" lon="14.818136542718">
        <ele>164</ele>
        <time>2020-01-21T19:55:20Z</time>
      </trkpt>
      <trkpt lat="56.862371142811" lon="14.818242657572">
        <ele>164.2</ele>
        <time>2020-01-21T19:55:28Z</time>
      </trkpt>
      <trkpt lat="56.862494692017" lon="14.81831826231">
        <ele>163.4</ele>
        <time>2020-01-21T19:55:33Z</time>
      </trkpt>
      <trkpt lat="56.862692588676" lon="14.818386239519">
        <ele>163</ele>
        <time>2020-01-21T19:55:40Z</time>
      </trkpt>
      <trkpt lat="56.862875146458" lon="14.818385485148">
        <ele>162.4</ele>
        <time>2020-01-21T19:55:45Z</time>
      </trkpt>
      <trkpt lat="56.863057117507" lon="14.818357908697">
        <ele>162.6</ele>
        <time>2020-01-21T19:55:49Z</time>
      </trkpt>
      <trkpt lat="56.863102044491" lon="14.81834340801">
        <ele>162.2</ele>
        <time>2020-01-21T19:55:50Z</time>
      </trkpt>
      <trkpt lat="56.863298851503" lon="14.818241651744">
        <ele>162.2</ele>
        <time>2020-01-21T19:55:56Z</time>
      </trkpt>
      <trkpt lat="56.86347847562" lon="14.818099578539">
        <ele>162.8</ele>
        <time>2020-01-21T19:56:02Z</time>
      </trkpt>
      <trkpt lat="56.863629685096" lon="14.818013496426">
        <ele>163.4</ele>
        <time>2020-01-21T19:56:07Z</time>
      </trkpt>
      <trkpt lat="56.863804112435" lon="14.817886678279">
        <ele>163.6</ele>
        <time>2020-01-21T19:56:13Z</time>
      </trkpt>
      <trkpt lat="56.863974600281" lon="14.817720381383">
        <ele>163.6</ele>
        <time>2020-01-21T19:56:19Z</time>
      </trkpt>
      <trkpt lat="56.864060095661" lon="14.81763932841">
        <ele>162.2</ele>
        <time>2020-01-21T19:56:22Z</time>
      </trkpt>
      <trkpt lat="56.864226476376" lon="14.817497925757">
        <ele>161.4</ele>
        <time>2020-01-21T19:56:28Z</time>
      </trkpt>
      <trkpt lat="56.864395036385" lon="14.817337999105">
        <ele>162.4</ele>
        <time>2020-01-21T19:56:34Z</time>
      </trkpt>
      <trkpt lat="56.86456812262" lon="14.817170277286">
        <ele>162.8</ele>
        <time>2020-01-21T19:56:41Z</time>
      </trkpt>
      <trkpt lat="56.864753194972" lon="14.817051421944">
        <ele>163.2</ele>
        <time>2020-01-21T19:56:47Z</time>
      </trkpt>
      <trkpt lat="56.864814801937" lon="14.816991658997">
        <ele>163.2</ele>
        <time>2020-01-21T19:56:49Z</time>
      </trkpt>
      <trkpt lat="56.864972549295" lon="14.816816896382">
        <ele>163.6</ele>
        <time>2020-01-21T19:56:54Z</time>
      </trkpt>
      <trkpt lat="56.865137421268" lon="14.81664104412">
        <ele>163.6</ele>
        <time>2020-01-21T19:57:00Z</time>
      </trkpt>
      <trkpt lat="56.865309334037" lon="14.816527134099">
        <ele>163.2</ele>
        <time>2020-01-21T19:57:06Z</time>
      </trkpt>
      <trkpt lat="56.865510164361" lon="14.816369554379">
        <ele>162.6</ele>
        <time>2020-01-21T19:57:13Z</time>
      </trkpt>
      <trkpt lat="56.865564311435" lon="14.816319262979">
        <ele>162</ele>
        <time>2020-01-21T19:57:15Z</time>
      </trkpt>
      <trkpt lat="56.865751982176" lon="14.816158330499">
        <ele>162.8</ele>
        <time>2020-01-21T19:57:21Z</time>
      </trkpt>
      <trkpt lat="56.865926744791" lon="14.816012485439">
        <ele>162.6</ele>
        <time>2020-01-21T19:57:27Z</time>
      </trkpt>
      <trkpt lat="56.86610284851" lon="14.815880470514">
        <ele>162.4</ele>
        <time>2020-01-21T19:57:33Z</time>
      </trkpt>
      <trkpt lat="56.866299236427" lon="14.815745354286">
        <ele>162</ele>
        <time>2020-01-21T19:57:39Z</time>
      </trkpt>
      <trkpt lat="56.866471316834" lon="14.815632030998">
        <ele>162.2</ele>
        <time>2020-01-21T19:57:45Z</time>
      </trkpt>
      <trkpt lat="56.866668040027" lon="14.815554414604">
        <ele>161.2</ele>
        <time>2020-01-21T19:57:51Z</time>
      </trkpt>
      <trkpt lat="56.866823943367" lon="14.815454250899">
        <ele>161</ele>
        <time>2020-01-21T19:57:56Z</time>
      </trkpt>
      <trkpt lat="56.867008428986" lon="14.815357020859">
        <ele>161</ele>
        <time>2020-01-21T19:58:02Z</time>
      </trkpt>
      <trkpt lat="56.867086464475" lon="14.815316871558">
        <ele>162.2</ele>
        <time>2020-01-21T19:58:05Z</time>
      </trkpt>
      <trkpt lat="56.867287378618" lon="14.815226011762">
        <ele>162.8</ele>
        <time>2020-01-21T19:58:11Z</time>
      </trkpt>
      <trkpt lat="56.867451244763" lon="14.815213438912">
        <ele>163.4</ele>
        <time>2020-01-21T19:58:17Z</time>
      </trkpt>
      <trkpt lat="56.867641178617" lon="14.815182006787">
        <ele>163</ele>
        <time>2020-01-21T19:58:23Z</time>
      </trkpt>
      <trkpt lat="56.867835638697" lon="14.815220982622">
        <ele>163.4</ele>
        <time>2020-01-21T19:58:29Z</time>
      </trkpt>
      <trkpt lat="56.868010904226" lon="14.815313937893">
        <ele>162.8</ele>
        <time>2020-01-21T19:58:35Z</time>
      </trkpt>
      <trkpt lat="56.868207711238" lon="14.81537118627">
        <ele>162.6</ele>
        <time>2020-01-21T19:58:41Z</time>
      </trkpt>
      <trkpt lat="56.86840284187" lon="14.815427596457">
        <ele>162.4</ele>
        <time>2020-01-21T19:58:48Z</time>
      </trkpt>
      <trkpt lat="56.868590428792" lon="14.815503368833">
        <ele>163.2</ele>
        <time>2020-01-21T19:58:54Z</time>
      </trkpt>
      <trkpt lat="56.868766281054" lon="14.815593474258">
        <ele>164</ele>
        <time>2020-01-21T19:59:00Z</time>
      </trkpt>
      <trkpt lat="56.868879017609" lon="14.815593641896">
        <ele>164.4</ele>
        <time>2020-01-21T19:59:03Z</time>
      </trkpt>
      <trkpt lat="56.869058474088" lon="14.815508733249">
        <ele>164.6</ele>
        <time>2020-01-21T19:59:08Z</time>
      </trkpt>
      <trkpt lat="56.869245474277" lon="14.815388955898">
        <ele>164</ele>
        <time>2020-01-21T19:59:14Z</time>
      </trkpt>
      <trkpt lat="56.869337758996" lon="14.815316033368">
        <ele>163.4</ele>
        <time>2020-01-21T19:59:17Z</time>
      </trkpt>
      <trkpt lat="56.869522160796" lon="14.815132134482">
        <ele>163.6</ele>
        <time>2020-01-21T19:59:23Z</time>
      </trkpt>
      <trkpt lat="56.869690636986" lon="14.814970447631">
        <ele>163.8</ele>
        <time>2020-01-21T19:59:29Z</time>
      </trkpt>
      <trkpt lat="56.869779568945" lon="14.814874642514">
        <ele>164.4</ele>
        <time>2020-01-21T19:59:32Z</time>
      </trkpt>
      <trkpt lat="56.869826591404" lon="14.81482468639">
        <ele>163.4</ele>
        <time>2020-01-21T19:59:34Z</time>
      </trkpt>
      <trkpt lat="56.869995151413" lon="14.814703903211">
        <ele>163.4</ele>
        <time>2020-01-21T19:59:40Z</time>
      </trkpt>
      <trkpt lat="56.870168321467" lon="14.814595357606">
        <ele>164</ele>
        <time>2020-01-21T19:59:47Z</time>
      </trkpt>
      <trkpt lat="56.870321626418" lon="14.814521596886">
        <ele>164.6</ele>
        <time>2020-01-21T19:59:53Z</time>
      </trkpt>
      <trkpt lat="56.870506866408" lon="14.814545066206">
        <ele>165.6</ele>
        <time>2020-01-21T20:00:01Z</time>
      </trkpt>
      <trkpt lat="56.870536622153" lon="14.814554286296">
        <ele>165.8</ele>
        <time>2020-01-21T20:00:02Z</time>
      </trkpt>
      <trkpt lat="56.870744409454" lon="14.814644559359">
        <ele>165.6</ele>
        <time>2020-01-21T20:00:08Z</time>
      </trkpt>
      <trkpt lat="56.870939456267" lon="14.814720583192">
        <ele>165.6</ele>
        <time>2020-01-21T20:00:13Z</time>
      </trkpt>
      <trkpt lat="56.871121008221" lon="14.814818735241">
        <ele>165.4</ele>
        <time>2020-01-21T20:00:18Z</time>
      </trkpt>
      <trkpt lat="56.87129040642" lon="14.814961478998">
        <ele>165.4</ele>
        <time>2020-01-21T20:00:24Z</time>
      </trkpt>
      <trkpt lat="56.871469276166" lon="14.815136995984">
        <ele>165.8</ele>
        <time>2020-01-21T20:00:31Z</time>
      </trkpt>
      <trkpt lat="56.87151252677" lon="14.815158537467">
        <ele>165.8</ele>
        <time>2020-01-21T20:00:33Z</time>
      </trkpt>
      <trkpt lat="56.871580001065" lon="14.815200027872">
        <ele>165.4</ele>
        <time>2020-01-21T20:00:36Z</time>
      </trkpt>
      <trkpt lat="56.87176566015" lon="14.815172954335">
        <ele>165</ele>
        <time>2020-01-21T20:00:42Z</time>
      </trkpt>
      <trkpt lat="56.871888119709" lon="14.815139678192">
        <ele>164.6</ele>
        <time>2020-01-21T20:00:45Z</time>
      </trkpt>
      <trkpt lat="56.872094314449" lon="14.815097014321">
        <ele>164.2</ele>
        <time>2020-01-21T20:00:51Z</time>
      </trkpt>
      <trkpt lat="56.872289445081" lon="14.815026606361">
        <ele>163.8</ele>
        <time>2020-01-21T20:00:56Z</time>
      </trkpt>
      <trkpt lat="56.872325822527" lon="14.815016715719">
        <ele>163.4</ele>
        <time>2020-01-21T20:00:57Z</time>
      </trkpt>
      <trkpt lat="56.872541404995" lon="14.814976063504">
        <ele>164</ele>
        <time>2020-01-21T20:01:02Z</time>
      </trkpt>
      <trkpt lat="56.872633857352" lon="14.814953683831">
        <ele>164.8</ele>
        <time>2020-01-21T20:01:04Z</time>
      </trkpt>
      <trkpt lat="56.872796466212" lon="14.815107575515">
        <ele>166</ele>
        <time>2020-01-21T20:01:10Z</time>
      </trkpt>
      <trkpt lat="56.872926301843" lon="14.815342436353">
        <ele>166.2</ele>
        <time>2020-01-21T20:01:16Z</time>
      </trkpt>
      <trkpt lat="56.87309083854" lon="14.815492640001">
        <ele>165.4</ele>
        <time>2020-01-21T20:01:22Z</time>
      </trkpt>
      <trkpt lat="56.873270043562" lon="14.815565394893">
        <ele>165.6</ele>
        <time>2020-01-21T20:01:27Z</time>
      </trkpt>
      <trkpt lat="56.873458217217" lon="14.81554972074">
        <ele>165.6</ele>
        <time>2020-01-21T20:01:33Z</time>
      </trkpt>
      <trkpt lat="56.873637925153" lon="14.815547625265">
        <ele>165.6</ele>
        <time>2020-01-21T20:01:38Z</time>
      </trkpt>
      <trkpt lat="56.873846299187" lon="14.815587020195">
        <ele>165.4</ele>
        <time>2020-01-21T20:01:44Z</time>
      </trkpt>
      <trkpt lat="56.874056349601" lon="14.815618536139">
        <ele>166.6</ele>
        <time>2020-01-21T20:01:50Z</time>
      </trkpt>
      <trkpt lat="56.874225077248" lon="14.815497250046">
        <ele>165.8</ele>
        <time>2020-01-21T20:01:56Z</time>
      </trkpt>
      <trkpt lat="56.874387769927" lon="14.815350315339">
        <ele>165</ele>
        <time>2020-01-21T20:02:02Z</time>
      </trkpt>
      <trkpt lat="56.874577033229" lon="14.815182844977">
        <ele>166</ele>
        <time>2020-01-21T20:02:09Z</time>
      </trkpt>
      <trkpt lat="56.874767972911" lon="14.81506776149">
        <ele>165.8</ele>
        <time>2020-01-21T20:02:16Z</time>
      </trkpt>
      <trkpt lat="56.874907447727" lon="14.814992240571">
        <ele>165</ele>
        <time>2020-01-21T20:02:21Z</time>
      </trkpt>
      <trkpt lat="56.875068715483" lon="14.814743968693">
        <ele>165.4</ele>
        <time>2020-01-21T20:02:27Z</time>
      </trkpt>
      <trkpt lat="56.875166448437" lon="14.814459906102">
        <ele>165.8</ele>
        <time>2020-01-21T20:02:32Z</time>
      </trkpt>
      <trkpt lat="56.875279687906" lon="14.81415497258">
        <ele>165.6</ele>
        <time>2020-01-21T20:02:38Z</time>
      </trkpt>
      <trkpt lat="56.875380019249" lon="14.813858169501">
        <ele>165.4</ele>
        <time>2020-01-21T20:02:44Z</time>
      </trkpt>
      <trkpt lat="56.875450678666" lon="14.813543512975">
        <ele>165.6</ele>
        <time>2020-01-21T20:02:50Z</time>
      </trkpt>
      <trkpt lat="56.875470795226" lon="14.813442008166">
        <ele>166</ele>
        <time>2020-01-21T20:02:52Z</time>
      </trkpt>
      <trkpt lat="56.875521254264" lon="14.813116958084">
        <ele>166.2</ele>
        <time>2020-01-21T20:02:58Z</time>
      </trkpt>
      <trkpt lat="56.875532905105" lon="14.812747148656">
        <ele>166.4</ele>
        <time>2020-01-21T20:03:04Z</time>
      </trkpt>
      <trkpt lat="56.87555595533" lon="14.812409358086">
        <ele>166.8</ele>
        <time>2020-01-21T20:03:10Z</time>
      </trkpt>
      <trkpt lat="56.875571797121" lon="14.812082799262">
        <ele>166.4</ele>
        <time>2020-01-21T20:03:16Z</time>
      </trkpt>
      <trkpt lat="56.875579257012" lon="14.81174266176">
        <ele>167</ele>
        <time>2020-01-21T20:03:22Z</time>
      </trkpt>
      <trkpt lat="56.875584789066" lon="14.811691448351">
        <ele>167.2</ele>
        <time>2020-01-21T20:03:23Z</time>
      </trkpt>
      <trkpt lat="56.875597781011" lon="14.811361117672">
        <ele>167.2</ele>
        <time>2020-01-21T20:03:29Z</time>
      </trkpt>
      <trkpt lat="56.87559367388" lon="14.811013939374">
        <ele>167</ele>
        <time>2020-01-21T20:03:35Z</time>
      </trkpt>
      <trkpt lat="56.875625860376" lon="14.810671957854">
        <ele>167.2</ele>
        <time>2020-01-21T20:03:41Z</time>
      </trkpt>
      <trkpt lat="56.875665590582" lon="14.810302316064">
        <ele>167.2</ele>
        <time>2020-01-21T20:03:48Z</time>
      </trkpt>
      <trkpt lat="56.875588058007" lon="14.81001850493">
        <ele>167.2</ele>
        <time>2020-01-21T20:03:56Z</time>
      </trkpt>
      <trkpt lat="56.875391334814" lon="14.809956897965">
        <ele>167.4</ele>
        <time>2020-01-21T20:04:02Z</time>
      </trkpt>
      <trkpt lat="56.875185810626" lon="14.809883891616">
        <ele>167.4</ele>
        <time>2020-01-21T20:04:08Z</time>
      </trkpt>
      <trkpt lat="56.87499939717" lon="14.809832845845">
        <ele>167.6</ele>
        <time>2020-01-21T20:04:13Z</time>
      </trkpt>
      <trkpt lat="56.87481415718" lon="14.809776603296">
        <ele>167.4</ele>
        <time>2020-01-21T20:04:19Z</time>
      </trkpt>
      <trkpt lat="56.874629503923" lon="14.809722707679">
        <ele>167.6</ele>
        <time>2020-01-21T20:04:25Z</time>
      </trkpt>
      <trkpt lat="56.874430685255" lon="14.809652467357">
        <ele>167.8</ele>
        <time>2020-01-21T20:04:31Z</time>
      </trkpt>
      <trkpt lat="56.874251899328" lon="14.809588681098">
        <ele>167.4</ele>
        <time>2020-01-21T20:04:37Z</time>
      </trkpt>
      <trkpt lat="56.874077807265" lon="14.809505448831">
        <ele>167.2</ele>
        <time>2020-01-21T20:04:43Z</time>
      </trkpt>
      <trkpt lat="56.873870187602" lon="14.809453313413">
        <ele>167.8</ele>
        <time>2020-01-21T20:04:49Z</time>
      </trkpt>
      <trkpt lat="56.873684863793" lon="14.809396316493">
        <ele>167.4</ele>
        <time>2020-01-21T20:04:55Z</time>
      </trkpt>
      <trkpt lat="56.873506077866" lon="14.809329848026">
        <ele>167.6</ele>
        <time>2020-01-21T20:05:01Z</time>
      </trkpt>
      <trkpt lat="56.873299966945" lon="14.80926413393">
        <ele>167</ele>
        <time>2020-01-21T20:05:08Z</time>
      </trkpt>
      <trkpt lat="56.873098046974" lon="14.809221134783">
        <ele>167</ele>
        <time>2020-01-21T20:05:14Z</time>
      </trkpt>
      <trkpt lat="56.872893109519" lon="14.809156761791">
        <ele>167.2</ele>
        <time>2020-01-21T20:05:20Z</time>
      </trkpt>
      <trkpt lat="56.872709042995" lon="14.809029273092">
        <ele>167.2</ele>
        <time>2020-01-21T20:05:26Z</time>
      </trkpt>
      <trkpt lat="56.872517935675" lon="14.808968839593">
        <ele>167.6</ele>
        <time>2020-01-21T20:05:32Z</time>
      </trkpt>
      <trkpt lat="56.87231970374" lon="14.808960960607">
        <ele>167.2</ele>
        <time>2020-01-21T20:05:38Z</time>
      </trkpt>
      <trkpt lat="56.872140079623" lon="14.808887870439">
        <ele>167.8</ele>
        <time>2020-01-21T20:05:44Z</time>
      </trkpt>
      <trkpt lat="56.871950397226" lon="14.808844284559">
        <ele>167</ele>
        <time>2020-01-21T20:05:50Z</time>
      </trkpt>
      <trkpt lat="56.871763229399" lon="14.808712856367">
        <ele>167.2</ele>
        <time>2020-01-21T20:05:56Z</time>
      </trkpt>
      <trkpt lat="56.871598944159" lon="14.808499453193">
        <ele>166.8</ele>
        <time>2020-01-21T20:06:02Z</time>
      </trkpt>
      <trkpt lat="56.87144463338" lon="14.808280015051">
        <ele>167.8</ele>
        <time>2020-01-21T20:06:08Z</time>
      </trkpt>
      <trkpt lat="56.87127699538" lon="14.808052614104">
        <ele>167.4</ele>
        <time>2020-01-21T20:06:15Z</time>
      </trkpt>
      <trkpt lat="56.871188398697" lon="14.807936273332">
        <ele>168.2</ele>
        <time>2020-01-21T20:06:19Z</time>
      </trkpt>
      <trkpt lat="56.871005673277" lon="14.807810880108">
        <ele>168.2</ele>
        <time>2020-01-21T20:06:26Z</time>
      </trkpt>
      <trkpt lat="56.870819595097" lon="14.807742316166">
        <ele>168.4</ele>
        <time>2020-01-21T20:06:32Z</time>
      </trkpt>
      <trkpt lat="56.87072881912" lon="14.807715577905">
        <ele>169.2</ele>
        <time>2020-01-21T20:06:35Z</time>
      </trkpt>
      <trkpt lat="56.870667044517" lon="14.807693701146">
        <ele>170.4</ele>
        <time>2020-01-21T20:06:37Z</time>
      </trkpt>
      <trkpt lat="56.870490689341" lon="14.807619353693">
        <ele>171.4</ele>
        <time>2020-01-21T20:06:43Z</time>
      </trkpt>
      <trkpt lat="56.870311651957" lon="14.807477364307">
        <ele>171</ele>
        <time>2020-01-21T20:06:49Z</time>
      </trkpt>
      <trkpt lat="56.870286925352" lon="14.807440819223">
        <ele>170</ele>
        <time>2020-01-21T20:06:50Z</time>
      </trkpt>
      <trkpt lat="56.870263036937" lon="14.807402597759">
        <ele>169</ele>
        <time>2020-01-21T20:06:51Z</time>
      </trkpt>
      <trkpt lat="56.870189695312" lon="14.807285083521">
        <ele>167.8</ele>
        <time>2020-01-21T20:06:54Z</time>
      </trkpt>
      <trkpt lat="56.870040078397" lon="14.807017281816">
        <ele>168.4</ele>
        <time>2020-01-21T20:07:00Z</time>
      </trkpt>
      <trkpt lat="56.869895909717" lon="14.806785689919">
        <ele>168.2</ele>
        <time>2020-01-21T20:07:06Z</time>
      </trkpt>
      <trkpt lat="56.869814270011" lon="14.806673875373">
        <ele>169.2</ele>
        <time>2020-01-21T20:07:09Z</time>
      </trkpt>
      <trkpt lat="56.869744281146" lon="14.806556696411">
        <ele>170.2</ele>
        <time>2020-01-21T20:07:12Z</time>
      </trkpt>
      <trkpt lat="56.869638836844" lon="14.80628353029">
        <ele>170</ele>
        <time>2020-01-21T20:07:18Z</time>
      </trkpt>
      <trkpt lat="56.869563483563" lon="14.80592981411">
        <ele>169.4</ele>
        <time>2020-01-21T20:07:25Z</time>
      </trkpt>
      <trkpt lat="56.869553928197" lon="14.805871056991">
        <ele>169</ele>
        <time>2020-01-21T20:07:26Z</time>
      </trkpt>
      <trkpt lat="56.869511012869" lon="14.805550533135">
        <ele>168</ele>
        <time>2020-01-21T20:07:32Z</time>
      </trkpt>
      <trkpt lat="56.869508330661" lon="14.805499068269">
        <ele>168</ele>
        <time>2020-01-21T20:07:33Z</time>
      </trkpt>
      <trkpt lat="56.86946231403" lon="14.805111237756">
        <ele>168.4</ele>
        <time>2020-01-21T20:07:40Z</time>
      </trkpt>
      <trkpt lat="56.869449489723" lon="14.80486028367">
        <ele>169</ele>
        <time>2020-01-21T20:07:44Z</time>
      </trkpt>
      <trkpt lat="56.869483436418" lon="14.80452081672">
        <ele>167.8</ele>
        <time>2020-01-21T20:07:50Z</time>
      </trkpt>
      <trkpt lat="56.869488800834" lon="14.804167603454">
        <ele>167.6</ele>
        <time>2020-01-21T20:07:56Z</time>
      </trkpt>
      <trkpt lat="56.869487627368" lon="14.803834255291">
        <ele>168.2</ele>
        <time>2020-01-21T20:08:02Z</time>
      </trkpt>
      <trkpt lat="56.869459380365" lon="14.803473749772">
        <ele>168</ele>
        <time>2020-01-21T20:08:10Z</time>
      </trkpt>
      <trkpt lat="56.869378662668" lon="14.803201338022">
        <ele>169</ele>
        <time>2020-01-21T20:08:16Z</time>
      </trkpt>
      <trkpt lat="56.869268273045" lon="14.802915179956">
        <ele>169.2</ele>
        <time>2020-01-21T20:08:24Z</time>
      </trkpt>
      <trkpt lat="56.869174479584" lon="14.802609827339">
        <ele>169</ele>
        <time>2020-01-21T20:08:30Z</time>
      </trkpt>
      <trkpt lat="56.869094013344" lon="14.802418887657">
        <ele>170.2</ele>
        <time>2020-01-21T20:08:34Z</time>
      </trkpt>
      <trkpt lat="56.868973733079" lon="14.802174639091">
        <ele>170.4</ele>
        <time>2020-01-21T20:08:39Z</time>
      </trkpt>
      <trkpt lat="56.868854710099" lon="14.801919158779">
        <ele>170.6</ele>
        <time>2020-01-21T20:08:44Z</time>
      </trkpt>
      <trkpt lat="56.868751193634" lon="14.801619589673">
        <ele>170.2</ele>
        <time>2020-01-21T20:08:50Z</time>
      </trkpt>
      <trkpt lat="56.868630997188" lon="14.801326558449">
        <ele>170.2</ele>
        <time>2020-01-21T20:08:56Z</time>
      </trkpt>
      <trkpt lat="56.868520104651" lon="14.801046938265">
        <ele>170</ele>
        <time>2020-01-21T20:09:02Z</time>
      </trkpt>
      <trkpt lat="56.868467214862" lon="14.80088055755">
        <ele>169.6</ele>
        <time>2020-01-21T20:09:05Z</time>
      </trkpt>
      <trkpt lat="56.868610293895" lon="14.800603535755">
        <ele>170</ele>
        <time>2020-01-21T20:09:11Z</time>
      </trkpt>
      <trkpt lat="56.868780111189" lon="14.800436065393">
        <ele>169.2</ele>
        <time>2020-01-21T20:09:17Z</time>
      </trkpt>
      <trkpt lat="56.868812213866" lon="14.800400442318">
        <ele>169</ele>
        <time>2020-01-21T20:09:18Z</time>
      </trkpt>
      <trkpt lat="56.868987982309" lon="14.800225009151">
        <ele>169.8</ele>
        <time>2020-01-21T20:09:24Z</time>
      </trkpt>
      <trkpt lat="56.869039363356" lon="14.800181087995">
        <ele>170</ele>
        <time>2020-01-21T20:09:26Z</time>
      </trkpt>
      <trkpt lat="56.869229548667" lon="14.800056197685">
        <ele>170</ele>
        <time>2020-01-21T20:09:33Z</time>
      </trkpt>
      <trkpt lat="56.86941956634" lon="14.799953184134">
        <ele>170</ele>
        <time>2020-01-21T20:09:41Z</time>
      </trkpt>
      <trkpt lat="56.869594580412" lon="14.799855367361">
        <ele>170</ele>
        <time>2020-01-21T20:09:48Z</time>
      </trkpt>
      <trkpt lat="56.869770600312" lon="14.799775739311">
        <ele>169.8</ele>
        <time>2020-01-21T20:09:54Z</time>
      </trkpt>
      <trkpt lat="56.869980231631" lon="14.799733662173">
        <ele>170.2</ele>
        <time>2020-01-21T20:10:00Z</time>
      </trkpt>
      <trkpt lat="56.870171003675" lon="14.799681778212">
        <ele>170</ele>
        <time>2020-01-21T20:10:06Z</time>
      </trkpt>
      <trkpt lat="56.870359764063" lon="14.799651603372">
        <ele>170</ele>
        <time>2020-01-21T20:10:12Z</time>
      </trkpt>
      <trkpt lat="56.870537795619" lon="14.79960650875">
        <ele>169.8</ele>
        <time>2020-01-21T20:10:17Z</time>
      </trkpt>
      <trkpt lat="56.870725801636" lon="14.799549763287">
        <ele>170.2</ele>
        <time>2020-01-21T20:10:24Z</time>
      </trkpt>
      <trkpt lat="56.870904084649" lon="14.799509446348">
        <ele>169.4</ele>
        <time>2020-01-21T20:10:30Z</time>
      </trkpt>
      <trkpt lat="56.87097859974" lon="14.799451024505">
        <ele>169.6</ele>
        <time>2020-01-21T20:10:33Z</time>
      </trkpt>
      <trkpt lat="56.871030232244" lon="14.799095799583">
        <ele>170.2</ele>
        <time>2020-01-21T20:10:39Z</time>
      </trkpt>
      <trkpt lat="56.87108002073" lon="14.798740742299">
        <ele>169.8</ele>
        <time>2020-01-21T20:10:45Z</time>
      </trkpt>
      <trkpt lat="56.871098796186" lon="14.798387193757">
        <ele>170.6</ele>
        <time>2020-01-21T20:10:51Z</time>
      </trkpt>
      <trkpt lat="56.871118912746" lon="14.798044625504">
        <ele>169.8</ele>
        <time>2020-01-21T20:10:57Z</time>
      </trkpt>
      <trkpt lat="56.871217148614" lon="14.797776404704">
        <ele>170.6</ele>
        <time>2020-01-21T20:11:03Z</time>
      </trkpt>
      <trkpt lat="56.871293256266" lon="14.797802640051">
        <ele>170</ele>
        <time>2020-01-21T20:11:05Z</time>
      </trkpt>
      <trkpt lat="56.871383864605" lon="14.797803981155">
        <ele>169.4</ele>
        <time>2020-01-21T20:11:08Z</time>
      </trkpt>
      <trkpt lat="56.871478244799" lon="14.797499718185">
        <ele>169.8</ele>
        <time>2020-01-21T20:11:14Z</time>
      </trkpt>
      <trkpt lat="56.871517807367" lon="14.797184391107">
        <ele>169.8</ele>
        <time>2020-01-21T20:11:19Z</time>
      </trkpt>
      <trkpt lat="56.871677398743" lon="14.796975178883">
        <ele>170</ele>
        <time>2020-01-21T20:11:26Z</time>
      </trkpt>
      <trkpt lat="56.87174386721" lon="14.796940896912">
        <ele>169.8</ele>
        <time>2020-01-21T20:11:29Z</time>
      </trkpt>
    </trkseg>
  </trk>
</gpx>